sensor_id;sensor_type;location;lat;lon;timestamp;P1;durP1;ratioP1;P2;durP2;ratioP2
9370;SDS011;4725;48.384;8.984;2024-03-25T00:00:20;7.30;;;1.90;;
9370;SDS011;4725;48.384;8.984;2024-03-25T00:02:47;6.80;;;2.00;;
9370;SDS011;4725;48.384;8.984;2024-03-25T00:05:14;7.37;;;2.50;;
9370;SDS011;4725;48.384;8.984;2024-03-25T00:07:41;3.93;;;1.80;;
9370;SDS011;4725;48.384;8.984;2024-03-25T00:10:10;10.07;;;1.83;;
9370;SDS011;4725;48.384;8.984;2024-03-25T00:12:35;5.77;;;1.70;;
9370;SDS011;4725;48.384;8.984;2024-03-25T00:15:02;4.30;;;1.63;;
9370;SDS011;4725;48.384;8.984;2024-03-25T00:17:29;5.53;;;2.33;;
9370;SDS011;4725;48.384;8.984;2024-03-25T00:19:56;3.83;;;1.77;;
9370;SDS011;4725;48.384;8.984;2024-03-25T00:22:23;4.63;;;2.00;;
9370;SDS011;4725;48.384;8.984;2024-03-25T00:24:50;7.90;;;1.80;;
9370;SDS011;4725;48.384;8.984;2024-03-25T00:27:18;4.93;;;2.17;;
9370;SDS011;4725;48.384;8.984;2024-03-25T00:29:44;4.30;;;1.97;;
9370;SDS011;4725;48.384;8.984;2024-03-25T00:32:10;3.00;;;2.13;;
9370;SDS011;4725;48.384;8.984;2024-03-25T00:34:37;4.90;;;2.30;;
9370;SDS011;4725;48.384;8.984;2024-03-25T00:37:03;2.90;;;2.00;;
9370;SDS011;4725;48.384;8.984;2024-03-25T00:39:30;4.50;;;1.97;;
9370;SDS011;4725;48.384;8.984;2024-03-25T00:41:57;3.47;;;2.03;;
9370;SDS011;4725;48.384;8.984;2024-03-25T00:44:25;7.10;;;2.03;;
9370;SDS011;4725;48.384;8.984;2024-03-25T00:46:52;8.73;;;2.00;;
9370;SDS011;4725;48.384;8.984;2024-03-25T00:49:19;4.77;;;2.23;;
9370;SDS011;4725;48.384;8.984;2024-03-25T00:51:46;6.30;;;3.00;;
9370;SDS011;4725;48.384;8.984;2024-03-25T00:54:13;3.57;;;2.43;;
9370;SDS011;4725;48.384;8.984;2024-03-25T00:56:39;3.73;;;1.93;;
9370;SDS011;4725;48.384;8.984;2024-03-25T00:59:06;5.70;;;2.27;;
9370;SDS011;4725;48.384;8.984;2024-03-25T01:01:33;7.27;;;2.33;;
9370;SDS011;4725;48.384;8.984;2024-03-25T01:04:00;4.47;;;2.37;;
9370;SDS011;4725;48.384;8.984;2024-03-25T01:06:27;4.87;;;1.93;;
9370;SDS011;4725;48.384;8.984;2024-03-25T01:08:53;3.47;;;2.20;;
9370;SDS011;4725;48.384;8.984;2024-03-25T01:11:19;4.93;;;2.30;;
9370;SDS011;4725;48.384;8.984;2024-03-25T01:13:47;3.73;;;2.20;;
9370;SDS011;4725;48.384;8.984;2024-03-25T01:16:13;2.83;;;1.90;;
9370;SDS011;4725;48.384;8.984;2024-03-25T01:18:41;4.37;;;2.10;;
9370;SDS011;4725;48.384;8.984;2024-03-25T01:21:07;3.60;;;2.00;;
9370;SDS011;4725;48.384;8.984;2024-03-25T01:23:34;5.07;;;2.00;;
9370;SDS011;4725;48.384;8.984;2024-03-25T01:26:00;3.83;;;1.90;;
9370;SDS011;4725;48.384;8.984;2024-03-25T01:28:27;4.97;;;2.30;;
9370;SDS011;4725;48.384;8.984;2024-03-25T01:30:53;6.77;;;2.27;;
9370;SDS011;4725;48.384;8.984;2024-03-25T01:33:20;3.63;;;2.00;;
9370;SDS011;4725;48.384;8.984;2024-03-25T01:35:47;6.23;;;2.07;;
9370;SDS011;4725;48.384;8.984;2024-03-25T01:38:14;3.03;;;1.97;;
9370;SDS011;4725;48.384;8.984;2024-03-25T01:40:40;6.37;;;1.80;;
9370;SDS011;4725;48.384;8.984;2024-03-25T01:43:07;10.57;;;2.73;;
9370;SDS011;4725;48.384;8.984;2024-03-25T01:45:33;5.10;;;2.10;;
9370;SDS011;4725;48.384;8.984;2024-03-25T01:48:02;6.43;;;2.30;;
9370;SDS011;4725;48.384;8.984;2024-03-25T01:50:31;5.57;;;2.03;;
9370;SDS011;4725;48.384;8.984;2024-03-25T01:53:03;5.27;;;2.37;;
9370;SDS011;4725;48.384;8.984;2024-03-25T01:55:30;3.77;;;2.10;;
9370;SDS011;4725;48.384;8.984;2024-03-25T01:57:59;5.40;;;2.17;;
9370;SDS011;4725;48.384;8.984;2024-03-25T02:00:25;5.17;;;2.27;;
9370;SDS011;4725;48.384;8.984;2024-03-25T02:02:53;2.80;;;2.17;;
9370;SDS011;4725;48.384;8.984;2024-03-25T02:05:19;4.17;;;2.10;;
9370;SDS011;4725;48.384;8.984;2024-03-25T02:07:47;6.47;;;2.17;;
9370;SDS011;4725;48.384;8.984;2024-03-25T02:10:15;4.37;;;2.17;;
9370;SDS011;4725;48.384;8.984;2024-03-25T02:12:43;4.03;;;1.83;;
9370;SDS011;4725;48.384;8.984;2024-03-25T02:15:11;4.63;;;2.00;;
9370;SDS011;4725;48.384;8.984;2024-03-25T02:17:39;5.00;;;2.60;;
9370;SDS011;4725;48.384;8.984;2024-03-25T02:20:05;6.10;;;2.07;;
9370;SDS011;4725;48.384;8.984;2024-03-25T02:22:33;4.30;;;1.80;;
9370;SDS011;4725;48.384;8.984;2024-03-25T02:25:01;4.50;;;2.17;;
9370;SDS011;4725;48.384;8.984;2024-03-25T02:27:33;4.47;;;1.97;;
9370;SDS011;4725;48.384;8.984;2024-03-25T02:30:01;4.67;;;2.10;;
9370;SDS011;4725;48.384;8.984;2024-03-25T02:32:30;4.27;;;2.40;;
9370;SDS011;4725;48.384;8.984;2024-03-25T02:34:56;4.20;;;2.33;;
9370;SDS011;4725;48.384;8.984;2024-03-25T02:37:24;8.07;;;2.60;;
9370;SDS011;4725;48.384;8.984;2024-03-25T02:39:50;3.40;;;2.40;;
9370;SDS011;4725;48.384;8.984;2024-03-25T02:42:18;5.20;;;2.50;;
9370;SDS011;4725;48.384;8.984;2024-03-25T02:44:46;6.03;;;2.20;;
9370;SDS011;4725;48.384;8.984;2024-03-25T02:47:13;6.03;;;2.27;;
9370;SDS011;4725;48.384;8.984;2024-03-25T02:49:39;5.07;;;3.03;;
9370;SDS011;4725;48.384;8.984;2024-03-25T02:52:08;6.30;;;3.13;;
9370;SDS011;4725;48.384;8.984;2024-03-25T02:54:34;8.83;;;4.27;;
9370;SDS011;4725;48.384;8.984;2024-03-25T02:57:01;9.13;;;4.93;;
9370;SDS011;4725;48.384;8.984;2024-03-25T02:59:27;18.47;;;9.90;;
9370;SDS011;4725;48.384;8.984;2024-03-25T03:01:55;22.80;;;12.23;;
9370;SDS011;4725;48.384;8.984;2024-03-25T03:04:21;40.33;;;19.90;;
9370;SDS011;4725;48.384;8.984;2024-03-25T03:06:48;51.70;;;26.93;;
9370;SDS011;4725;48.384;8.984;2024-03-25T03:09:14;50.13;;;25.57;;
9370;SDS011;4725;48.384;8.984;2024-03-25T03:11:41;59.47;;;28.00;;
9370;SDS011;4725;48.384;8.984;2024-03-25T03:14:07;56.43;;;29.30;;
9370;SDS011;4725;48.384;8.984;2024-03-25T03:16:34;59.33;;;28.73;;
9370;SDS011;4725;48.384;8.984;2024-03-25T03:19:02;55.20;;;28.53;;
9370;SDS011;4725;48.384;8.984;2024-03-25T03:21:28;51.00;;;26.17;;
9370;SDS011;4725;48.384;8.984;2024-03-25T03:23:55;51.43;;;27.03;;
9370;SDS011;4725;48.384;8.984;2024-03-25T03:26:22;49.30;;;26.50;;
9370;SDS011;4725;48.384;8.984;2024-03-25T03:28:51;57.97;;;26.83;;
9370;SDS011;4725;48.384;8.984;2024-03-25T03:31:18;43.93;;;22.50;;
9370;SDS011;4725;48.384;8.984;2024-03-25T03:33:46;38.20;;;20.17;;
9370;SDS011;4725;48.384;8.984;2024-03-25T03:36:15;35.67;;;17.83;;
9370;SDS011;4725;48.384;8.984;2024-03-25T03:38:41;28.73;;;15.97;;
9370;SDS011;4725;48.384;8.984;2024-03-25T03:41:08;31.87;;;16.60;;
9370;SDS011;4725;48.384;8.984;2024-03-25T03:43:34;43.20;;;18.47;;
9370;SDS011;4725;48.384;8.984;2024-03-25T03:46:00;46.33;;;21.83;;
9370;SDS011;4725;48.384;8.984;2024-03-25T03:48:27;43.53;;;22.50;;
9370;SDS011;4725;48.384;8.984;2024-03-25T03:50:54;47.13;;;22.40;;
9370;SDS011;4725;48.384;8.984;2024-03-25T03:53:21;45.40;;;21.37;;
9370;SDS011;4725;48.384;8.984;2024-03-25T03:55:55;38.87;;;19.73;;
9370;SDS011;4725;48.384;8.984;2024-03-25T03:58:22;40.53;;;19.37;;
9370;SDS011;4725;48.384;8.984;2024-03-25T04:00:49;38.63;;;19.63;;
9370;SDS011;4725;48.384;8.984;2024-03-25T04:03:15;46.90;;;19.07;;
9370;SDS011;4725;48.384;8.984;2024-03-25T04:05:42;34.53;;;17.00;;
9370;SDS011;4725;48.384;8.984;2024-03-25T04:08:08;35.00;;;18.80;;
9370;SDS011;4725;48.384;8.984;2024-03-25T04:10:37;37.60;;;16.63;;
9370;SDS011;4725;48.384;8.984;2024-03-25T04:13:03;32.97;;;17.30;;
9370;SDS011;4725;48.384;8.984;2024-03-25T04:15:32;29.93;;;17.23;;
9370;SDS011;4725;48.384;8.984;2024-03-25T04:17:58;36.10;;;17.27;;
9370;SDS011;4725;48.384;8.984;2024-03-25T04:20:26;30.77;;;17.97;;
9370;SDS011;4725;48.384;8.984;2024-03-25T04:22:52;31.47;;;18.13;;
9370;SDS011;4725;48.384;8.984;2024-03-25T04:25:18;26.73;;;16.30;;
9370;SDS011;4725;48.384;8.984;2024-03-25T04:27:46;23.13;;;14.57;;
9370;SDS011;4725;48.384;8.984;2024-03-25T04:30:13;23.37;;;11.37;;
9370;SDS011;4725;48.384;8.984;2024-03-25T04:32:39;21.50;;;11.67;;
9370;SDS011;4725;48.384;8.984;2024-03-25T04:35:07;22.57;;;10.97;;
9370;SDS011;4725;48.384;8.984;2024-03-25T04:37:34;18.47;;;9.97;;
9370;SDS011;4725;48.384;8.984;2024-03-25T04:40:00;17.50;;;9.83;;
9370;SDS011;4725;48.384;8.984;2024-03-25T04:42:26;21.33;;;10.57;;
9370;SDS011;4725;48.384;8.984;2024-03-25T04:44:54;23.43;;;10.60;;
9370;SDS011;4725;48.384;8.984;2024-03-25T04:47:20;23.70;;;12.10;;
9370;SDS011;4725;48.384;8.984;2024-03-25T04:49:46;20.53;;;10.90;;
9370;SDS011;4725;48.384;8.984;2024-03-25T04:52:12;17.00;;;10.07;;
9370;SDS011;4725;48.384;8.984;2024-03-25T04:54:39;18.00;;;8.40;;
9370;SDS011;4725;48.384;8.984;2024-03-25T04:57:05;26.57;;;9.77;;
9370;SDS011;4725;48.384;8.984;2024-03-25T04:59:31;23.33;;;10.63;;
9370;SDS011;4725;48.384;8.984;2024-03-25T05:01:58;18.67;;;9.17;;
9370;SDS011;4725;48.384;8.984;2024-03-25T05:04:24;27.23;;;9.33;;
9370;SDS011;4725;48.384;8.984;2024-03-25T05:06:50;25.33;;;8.97;;
9370;SDS011;4725;48.384;8.984;2024-03-25T05:09:17;21.40;;;8.37;;
9370;SDS011;4725;48.384;8.984;2024-03-25T05:11:43;16.30;;;9.03;;
9370;SDS011;4725;48.384;8.984;2024-03-25T05:14:09;14.80;;;8.77;;
9370;SDS011;4725;48.384;8.984;2024-03-25T05:16:35;14.03;;;7.83;;
9370;SDS011;4725;48.384;8.984;2024-03-25T05:19:02;14.57;;;5.90;;
9370;SDS011;4725;48.384;8.984;2024-03-25T05:21:29;12.43;;;4.60;;
9370;SDS011;4725;48.384;8.984;2024-03-25T05:23:55;11.00;;;4.70;;
9370;SDS011;4725;48.384;8.984;2024-03-25T05:26:21;9.90;;;4.20;;
9370;SDS011;4725;48.384;8.984;2024-03-25T05:28:51;11.57;;;4.70;;
9370;SDS011;4725;48.384;8.984;2024-03-25T05:31:18;9.00;;;4.83;;
9370;SDS011;4725;48.384;8.984;2024-03-25T05:33:44;16.00;;;4.83;;
9370;SDS011;4725;48.384;8.984;2024-03-25T05:36:11;12.23;;;5.33;;
9370;SDS011;4725;48.384;8.984;2024-03-25T05:38:37;8.23;;;4.23;;
9370;SDS011;4725;48.384;8.984;2024-03-25T05:41:03;10.20;;;4.00;;
9370;SDS011;4725;48.384;8.984;2024-03-25T05:43:29;12.80;;;5.27;;
9370;SDS011;4725;48.384;8.984;2024-03-25T05:45:55;13.30;;;4.00;;
9370;SDS011;4725;48.384;8.984;2024-03-25T05:48:22;13.40;;;3.47;;
9370;SDS011;4725;48.384;8.984;2024-03-25T05:50:56;10.77;;;3.77;;
9370;SDS011;4725;48.384;8.984;2024-03-25T05:53:26;4.90;;;3.27;;
9370;SDS011;4725;48.384;8.984;2024-03-25T05:55:53;7.47;;;3.37;;
9370;SDS011;4725;48.384;8.984;2024-03-25T05:58:19;8.73;;;3.50;;
9370;SDS011;4725;48.384;8.984;2024-03-25T06:00:46;8.03;;;3.23;;
9370;SDS011;4725;48.384;8.984;2024-03-25T06:03:12;5.57;;;2.53;;
9370;SDS011;4725;48.384;8.984;2024-03-25T06:05:38;6.70;;;2.80;;
9370;SDS011;4725;48.384;8.984;2024-03-25T06:08:05;6.10;;;3.47;;
9370;SDS011;4725;48.384;8.984;2024-03-25T06:10:36;6.63;;;3.80;;
9370;SDS011;4725;48.384;8.984;2024-03-25T06:13:02;8.67;;;3.63;;
9370;SDS011;4725;48.384;8.984;2024-03-25T06:15:28;8.90;;;4.73;;
9370;SDS011;4725;48.384;8.984;2024-03-25T06:17:54;9.17;;;3.83;;
9370;SDS011;4725;48.384;8.984;2024-03-25T06:20:20;7.97;;;3.40;;
9370;SDS011;4725;48.384;8.984;2024-03-25T06:22:46;7.50;;;4.30;;
9370;SDS011;4725;48.384;8.984;2024-03-25T06:25:12;11.30;;;3.83;;
9370;SDS011;4725;48.384;8.984;2024-03-25T06:27:39;6.50;;;3.50;;
9370;SDS011;4725;48.384;8.984;2024-03-25T06:30:06;8.90;;;3.00;;
9370;SDS011;4725;48.384;8.984;2024-03-25T06:32:50;8.83;;;3.60;;
9370;SDS011;4725;48.384;8.984;2024-03-25T06:35:35;9.60;;;3.43;;
9370;SDS011;4725;48.384;8.984;2024-03-25T06:38:00;11.20;;;3.43;;
9370;SDS011;4725;48.384;8.984;2024-03-25T06:40:26;3.87;;;2.60;;
9370;SDS011;4725;48.384;8.984;2024-03-25T06:42:54;14.20;;;3.53;;
9370;SDS011;4725;48.384;8.984;2024-03-25T06:45:19;9.30;;;5.03;;
9370;SDS011;4725;48.384;8.984;2024-03-25T06:47:45;3.63;;;2.87;;
9370;SDS011;4725;48.384;8.984;2024-03-25T06:50:11;5.73;;;2.93;;
9370;SDS011;4725;48.384;8.984;2024-03-25T06:52:37;9.87;;;3.23;;
9370;SDS011;4725;48.384;8.984;2024-03-25T06:55:03;8.30;;;2.80;;
9370;SDS011;4725;48.384;8.984;2024-03-25T06:57:30;7.97;;;2.93;;
9370;SDS011;4725;48.384;8.984;2024-03-25T06:59:57;5.80;;;2.47;;
9370;SDS011;4725;48.384;8.984;2024-03-25T07:02:23;7.07;;;3.00;;
9370;SDS011;4725;48.384;8.984;2024-03-25T07:04:49;7.83;;;3.00;;
9370;SDS011;4725;48.384;8.984;2024-03-25T07:07:15;4.43;;;2.73;;
9370;SDS011;4725;48.384;8.984;2024-03-25T07:09:41;8.57;;;2.87;;
9370;SDS011;4725;48.384;8.984;2024-03-25T07:12:07;5.90;;;2.37;;
9370;SDS011;4725;48.384;8.984;2024-03-25T07:14:33;6.40;;;3.97;;
9370;SDS011;4725;48.384;8.984;2024-03-25T07:17:00;5.33;;;2.97;;
9370;SDS011;4725;48.384;8.984;2024-03-25T07:19:26;5.73;;;2.00;;
9370;SDS011;4725;48.384;8.984;2024-03-25T07:21:52;3.40;;;1.97;;
9370;SDS011;4725;48.384;8.984;2024-03-25T07:24:18;5.53;;;2.67;;
9370;SDS011;4725;48.384;8.984;2024-03-25T07:26:44;5.47;;;2.60;;
9370;SDS011;4725;48.384;8.984;2024-03-25T07:29:09;4.67;;;3.20;;
9370;SDS011;4725;48.384;8.984;2024-03-25T07:31:35;6.20;;;2.20;;
9370;SDS011;4725;48.384;8.984;2024-03-25T07:34:03;5.17;;;2.10;;
9370;SDS011;4725;48.384;8.984;2024-03-25T07:36:28;5.33;;;2.53;;
9370;SDS011;4725;48.384;8.984;2024-03-25T07:38:54;2.30;;;2.07;;
9370;SDS011;4725;48.384;8.984;2024-03-25T07:41:20;6.03;;;2.93;;
9370;SDS011;4725;48.384;8.984;2024-03-25T07:43:46;3.53;;;2.77;;
9370;SDS011;4725;48.384;8.984;2024-03-25T07:46:12;4.40;;;1.80;;
9370;SDS011;4725;48.384;8.984;2024-03-25T07:48:38;4.93;;;2.30;;
9370;SDS011;4725;48.384;8.984;2024-03-25T07:51:05;4.13;;;2.50;;
9370;SDS011;4725;48.384;8.984;2024-03-25T07:53:31;7.47;;;2.33;;
9370;SDS011;4725;48.384;8.984;2024-03-25T07:55:57;4.33;;;2.03;;
9370;SDS011;4725;48.384;8.984;2024-03-25T07:58:23;2.67;;;1.37;;
9370;SDS011;4725;48.384;8.984;2024-03-25T08:00:49;5.00;;;1.90;;
9370;SDS011;4725;48.384;8.984;2024-03-25T08:03:15;3.63;;;1.93;;
9370;SDS011;4725;48.384;8.984;2024-03-25T08:05:41;4.63;;;1.80;;
9370;SDS011;4725;48.384;8.984;2024-03-25T08:08:09;5.30;;;2.50;;
9370;SDS011;4725;48.384;8.984;2024-03-25T08:10:35;5.57;;;2.10;;
9370;SDS011;4725;48.384;8.984;2024-03-25T08:13:02;4.57;;;2.40;;
9370;SDS011;4725;48.384;8.984;2024-03-25T08:15:28;5.43;;;1.70;;
9370;SDS011;4725;48.384;8.984;2024-03-25T08:17:54;3.53;;;2.00;;
9370;SDS011;4725;48.384;8.984;2024-03-25T08:20:20;3.13;;;2.00;;
9370;SDS011;4725;48.384;8.984;2024-03-25T08:22:46;2.23;;;1.50;;
9370;SDS011;4725;48.384;8.984;2024-03-25T08:25:15;4.70;;;1.63;;
9370;SDS011;4725;48.384;8.984;2024-03-25T08:27:41;3.63;;;1.80;;
9370;SDS011;4725;48.384;8.984;2024-03-25T08:30:07;5.60;;;1.60;;
9370;SDS011;4725;48.384;8.984;2024-03-25T08:32:34;2.90;;;1.70;;
9370;SDS011;4725;48.384;8.984;2024-03-25T08:35:00;7.10;;;2.20;;
9370;SDS011;4725;48.384;8.984;2024-03-25T08:37:26;3.37;;;1.50;;
9370;SDS011;4725;48.384;8.984;2024-03-25T08:39:52;3.17;;;1.50;;
9370;SDS011;4725;48.384;8.984;2024-03-25T08:42:19;2.70;;;2.20;;
9370;SDS011;4725;48.384;8.984;2024-03-25T08:44:45;4.97;;;2.17;;
9370;SDS011;4725;48.384;8.984;2024-03-25T08:47:11;4.17;;;1.83;;
9370;SDS011;4725;48.384;8.984;2024-03-25T08:49:37;4.73;;;1.70;;
9370;SDS011;4725;48.384;8.984;2024-03-25T08:52:03;5.53;;;1.80;;
9370;SDS011;4725;48.384;8.984;2024-03-25T08:54:29;3.73;;;1.70;;
9370;SDS011;4725;48.384;8.984;2024-03-25T08:56:55;4.73;;;1.70;;
9370;SDS011;4725;48.384;8.984;2024-03-25T08:59:22;5.90;;;1.80;;
9370;SDS011;4725;48.384;8.984;2024-03-25T09:01:48;4.63;;;1.70;;
9370;SDS011;4725;48.384;8.984;2024-03-25T09:04:14;4.37;;;1.70;;
9370;SDS011;4725;48.384;8.984;2024-03-25T09:06:40;2.60;;;1.57;;
9370;SDS011;4725;48.384;8.984;2024-03-25T09:09:06;3.10;;;1.90;;
9370;SDS011;4725;48.384;8.984;2024-03-25T09:11:50;3.10;;;1.70;;
9370;SDS011;4725;48.384;8.984;2024-03-25T09:14:16;3.90;;;2.17;;
9370;SDS011;4725;48.384;8.984;2024-03-25T09:16:43;6.37;;;1.70;;
9370;SDS011;4725;48.384;8.984;2024-03-25T09:19:09;3.23;;;1.40;;
9370;SDS011;4725;48.384;8.984;2024-03-25T09:21:35;1.80;;;1.20;;
9370;SDS011;4725;48.384;8.984;2024-03-25T09:24:01;4.03;;;1.53;;
9370;SDS011;4725;48.384;8.984;2024-03-25T09:26:27;2.90;;;1.60;;
9370;SDS011;4725;48.384;8.984;2024-03-25T09:28:52;4.23;;;1.43;;
9370;SDS011;4725;48.384;8.984;2024-03-25T09:31:18;8.33;;;1.70;;
9370;SDS011;4725;48.384;8.984;2024-03-25T09:33:46;2.17;;;1.27;;
9370;SDS011;4725;48.384;8.984;2024-03-25T09:36:11;2.80;;;1.43;;
9370;SDS011;4725;48.384;8.984;2024-03-25T09:38:37;3.03;;;1.70;;
9370;SDS011;4725;48.384;8.984;2024-03-25T09:41:03;3.77;;;2.33;;
9370;SDS011;4725;48.384;8.984;2024-03-25T09:43:31;4.37;;;1.80;;
9370;SDS011;4725;48.384;8.984;2024-03-25T09:45:59;2.83;;;1.87;;
9370;SDS011;4725;48.384;8.984;2024-03-25T09:48:25;2.10;;;1.30;;
9370;SDS011;4725;48.384;8.984;2024-03-25T09:50:53;4.23;;;1.73;;
9370;SDS011;4725;48.384;8.984;2024-03-25T09:53:19;2.67;;;1.60;;
9370;SDS011;4725;48.384;8.984;2024-03-25T09:55:46;4.97;;;2.00;;
9370;SDS011;4725;48.384;8.984;2024-03-25T09:58:12;2.83;;;1.60;;
9370;SDS011;4725;48.384;8.984;2024-03-25T10:00:39;2.00;;;1.30;;
9370;SDS011;4725;48.384;8.984;2024-03-25T10:03:05;2.67;;;1.30;;
9370;SDS011;4725;48.384;8.984;2024-03-25T10:05:31;3.40;;;1.60;;
9370;SDS011;4725;48.384;8.984;2024-03-25T10:07:59;3.80;;;1.35;;
9370;SDS011;4725;48.384;8.984;2024-03-25T10:10:25;2.27;;;1.60;;
9370;SDS011;4725;48.384;8.984;2024-03-25T10:12:54;2.38;;;1.35;;
9370;SDS011;4725;48.384;8.984;2024-03-25T10:15:20;2.03;;;1.20;;
9370;SDS011;4725;48.384;8.984;2024-03-25T10:17:48;1.63;;;1.30;;
9370;SDS011;4725;48.384;8.984;2024-03-25T10:20:15;2.85;;;1.52;;
9370;SDS011;4725;48.384;8.984;2024-03-25T10:22:41;3.33;;;1.40;;
9370;SDS011;4725;48.384;8.984;2024-03-25T10:25:18;5.18;;;2.45;;
9370;SDS011;4725;48.384;8.984;2024-03-25T10:27:52;2.47;;;1.25;;
9370;SDS011;4725;48.384;8.984;2024-03-25T10:30:19;3.58;;;1.48;;
9370;SDS011;4725;48.384;8.984;2024-03-25T10:32:45;3.22;;;1.42;;
9370;SDS011;4725;48.384;8.984;2024-03-25T10:35:11;2.10;;;1.27;;
9370;SDS011;4725;48.384;8.984;2024-03-25T10:37:38;3.60;;;1.48;;
9370;SDS011;4725;48.384;8.984;2024-03-25T10:40:05;1.75;;;1.25;;
9370;SDS011;4725;48.384;8.984;2024-03-25T10:42:36;4.55;;;1.50;;
9370;SDS011;4725;48.384;8.984;2024-03-25T10:45:07;2.70;;;1.65;;
9370;SDS011;4725;48.384;8.984;2024-03-25T10:47:34;2.95;;;1.60;;
9370;SDS011;4725;48.384;8.984;2024-03-25T10:50:01;1.52;;;1.10;;
9370;SDS011;4725;48.384;8.984;2024-03-25T10:52:34;1.42;;;1.30;;
9370;SDS011;4725;48.384;8.984;2024-03-25T10:55:02;3.15;;;1.60;;
9370;SDS011;4725;48.384;8.984;2024-03-25T10:57:30;2.63;;;1.42;;
9370;SDS011;4725;48.384;8.984;2024-03-25T10:59:57;2.40;;;1.52;;
9370;SDS011;4725;48.384;8.984;2024-03-25T11:02:23;2.10;;;1.33;;
9370;SDS011;4725;48.384;8.984;2024-03-25T11:04:50;3.50;;;1.50;;
9370;SDS011;4725;48.384;8.984;2024-03-25T11:07:16;2.22;;;1.30;;
9370;SDS011;4725;48.384;8.984;2024-03-25T11:09:43;2.67;;;1.35;;
9370;SDS011;4725;48.384;8.984;2024-03-25T11:12:09;4.97;;;1.60;;
9370;SDS011;4725;48.384;8.984;2024-03-25T11:14:37;8.80;;;1.75;;
9370;SDS011;4725;48.384;8.984;2024-03-25T11:17:13;4.20;;;2.00;;
9370;SDS011;4725;48.384;8.984;2024-03-25T11:19:40;2.95;;;1.33;;
9370;SDS011;4725;48.384;8.984;2024-03-25T11:22:07;4.60;;;1.80;;
9370;SDS011;4725;48.384;8.984;2024-03-25T11:24:34;3.60;;;1.65;;
9370;SDS011;4725;48.384;8.984;2024-03-25T11:27:01;1.92;;;1.40;;
9370;SDS011;4725;48.384;8.984;2024-03-25T11:29:27;2.55;;;1.48;;
9370;SDS011;4725;48.384;8.984;2024-03-25T11:31:54;3.25;;;1.50;;
9370;SDS011;4725;48.384;8.984;2024-03-25T11:34:24;3.97;;;1.67;;
9370;SDS011;4725;48.384;8.984;2024-03-25T11:36:49;3.20;;;1.40;;
9370;SDS011;4725;48.384;8.984;2024-03-25T11:39:16;4.15;;;1.70;;
9370;SDS011;4725;48.384;8.984;2024-03-25T11:41:42;4.53;;;1.80;;
9370;SDS011;4725;48.384;8.984;2024-03-25T11:44:08;2.40;;;1.52;;
9370;SDS011;4725;48.384;8.984;2024-03-25T11:46:36;1.95;;;1.40;;
9370;SDS011;4725;48.384;8.984;2024-03-25T11:49:03;1.45;;;1.20;;
9370;SDS011;4725;48.384;8.984;2024-03-25T11:51:30;2.75;;;1.60;;
9370;SDS011;4725;48.384;8.984;2024-03-25T11:53:56;1.95;;;1.52;;
9370;SDS011;4725;48.384;8.984;2024-03-25T11:56:23;2.00;;;1.20;;
9370;SDS011;4725;48.384;8.984;2024-03-25T11:58:49;2.92;;;1.83;;
9370;SDS011;4725;48.384;8.984;2024-03-25T12:01:15;3.17;;;2.08;;
9370;SDS011;4725;48.384;8.984;2024-03-25T12:03:41;4.07;;;1.80;;
9370;SDS011;4725;48.384;8.984;2024-03-25T12:06:08;3.75;;;1.40;;
9370;SDS011;4725;48.384;8.984;2024-03-25T12:08:34;2.72;;;1.65;;
9370;SDS011;4725;48.384;8.984;2024-03-25T12:11:00;4.63;;;1.30;;
9370;SDS011;4725;48.384;8.984;2024-03-25T12:13:45;2.63;;;1.40;;
9370;SDS011;4725;48.384;8.984;2024-03-25T12:16:11;2.20;;;1.70;;
9370;SDS011;4725;48.384;8.984;2024-03-25T12:18:39;2.50;;;1.60;;
9370;SDS011;4725;48.384;8.984;2024-03-25T12:21:06;2.08;;;1.35;;
9370;SDS011;4725;48.384;8.984;2024-03-25T12:23:35;2.47;;;1.25;;
9370;SDS011;4725;48.384;8.984;2024-03-25T12:26:01;2.10;;;1.30;;
9370;SDS011;4725;48.384;8.984;2024-03-25T12:28:27;2.90;;;1.40;;
9370;SDS011;4725;48.384;8.984;2024-03-25T12:30:54;2.90;;;1.70;;
9370;SDS011;4725;48.384;8.984;2024-03-25T12:33:21;2.10;;;1.33;;
9370;SDS011;4725;48.384;8.984;2024-03-25T12:35:48;2.47;;;1.45;;
9370;SDS011;4725;48.384;8.984;2024-03-25T12:38:25;1.40;;;1.30;;
9370;SDS011;4725;48.384;8.984;2024-03-25T12:40:52;1.70;;;1.42;;
9370;SDS011;4725;48.384;8.984;2024-03-25T12:43:18;2.75;;;1.52;;
9370;SDS011;4725;48.384;8.984;2024-03-25T12:45:44;1.20;;;1.10;;
9370;SDS011;4725;48.384;8.984;2024-03-25T12:48:10;2.33;;;1.45;;
9370;SDS011;4725;48.384;8.984;2024-03-25T12:50:36;1.40;;;1.25;;
9370;SDS011;4725;48.384;8.984;2024-03-25T12:53:03;2.33;;;1.45;;
9370;SDS011;4725;48.384;8.984;2024-03-25T12:55:30;2.85;;;1.38;;
9370;SDS011;4725;48.384;8.984;2024-03-25T12:57:56;2.20;;;1.40;;
9370;SDS011;4725;48.384;8.984;2024-03-25T13:00:22;3.83;;;1.20;;
9370;SDS011;4725;48.384;8.984;2024-03-25T13:02:48;1.95;;;1.25;;
9370;SDS011;4725;48.384;8.984;2024-03-25T13:05:14;1.42;;;1.13;;
9370;SDS011;4725;48.384;8.984;2024-03-25T13:07:40;2.70;;;1.40;;
9370;SDS011;4725;48.384;8.984;2024-03-25T13:10:06;1.60;;;1.30;;
9370;SDS011;4725;48.384;8.984;2024-03-25T13:12:34;1.55;;;1.20;;
9370;SDS011;4725;48.384;8.984;2024-03-25T13:15:00;2.80;;;1.40;;
9370;SDS011;4725;48.384;8.984;2024-03-25T13:17:25;2.75;;;1.70;;
9370;SDS011;4725;48.384;8.984;2024-03-25T13:19:51;1.40;;;1.05;;
9370;SDS011;4725;48.384;8.984;2024-03-25T13:22:17;1.67;;;1.20;;
9370;SDS011;4725;48.384;8.984;2024-03-25T13:24:43;1.02;;;0.93;;
9370;SDS011;4725;48.384;8.984;2024-03-25T13:27:09;2.15;;;1.20;;
9370;SDS011;4725;48.384;8.984;2024-03-25T13:29:36;1.58;;;1.30;;
9370;SDS011;4725;48.384;8.984;2024-03-25T13:32:02;3.88;;;1.30;;
9370;SDS011;4725;48.384;8.984;2024-03-25T13:34:28;1.20;;;1.00;;
9370;SDS011;4725;48.384;8.984;2024-03-25T13:36:54;1.13;;;0.93;;
9370;SDS011;4725;48.384;8.984;2024-03-25T13:39:20;1.65;;;1.40;;
9370;SDS011;4725;48.384;8.984;2024-03-25T13:41:46;2.15;;;1.13;;
9370;SDS011;4725;48.384;8.984;2024-03-25T13:44:12;1.42;;;1.10;;
9370;SDS011;4725;48.384;8.984;2024-03-25T13:46:40;1.20;;;1.10;;
9370;SDS011;4725;48.384;8.984;2024-03-25T13:49:05;2.05;;;1.25;;
9370;SDS011;4725;48.384;8.984;2024-03-25T13:51:31;3.63;;;1.17;;
9370;SDS011;4725;48.384;8.984;2024-03-25T13:53:57;3.38;;;1.50;;
9370;SDS011;4725;48.384;8.984;2024-03-25T13:56:23;2.20;;;1.40;;
9370;SDS011;4725;48.384;8.984;2024-03-25T13:58:49;1.98;;;1.48;;
9370;SDS011;4725;48.384;8.984;2024-03-25T14:01:15;3.35;;;1.30;;
9370;SDS011;4725;48.384;8.984;2024-03-25T14:03:43;1.70;;;1.60;;
9370;SDS011;4725;48.384;8.984;2024-03-25T14:06:09;1.50;;;1.40;;
9370;SDS011;4725;48.384;8.984;2024-03-25T14:08:35;1.83;;;1.25;;
9370;SDS011;4725;48.384;8.984;2024-03-25T14:11:01;1.52;;;1.02;;
9370;SDS011;4725;48.384;8.984;2024-03-25T14:13:27;1.33;;;1.20;;
9370;SDS011;4725;48.384;8.984;2024-03-25T14:15:53;1.58;;;1.33;;
9370;SDS011;4725;48.384;8.984;2024-03-25T14:18:19;1.85;;;1.50;;
9370;SDS011;4725;48.384;8.984;2024-03-25T14:20:47;1.25;;;1.15;;
9370;SDS011;4725;48.384;8.984;2024-03-25T14:23:13;2.63;;;1.63;;
9370;SDS011;4725;48.384;8.984;2024-03-25T14:25:39;1.58;;;1.30;;
9370;SDS011;4725;48.384;8.984;2024-03-25T14:28:05;1.83;;;1.50;;
9370;SDS011;4725;48.384;8.984;2024-03-25T14:30:31;1.83;;;1.48;;
9370;SDS011;4725;48.384;8.984;2024-03-25T14:32:57;1.92;;;1.55;;
9370;SDS011;4725;48.384;8.984;2024-03-25T14:35:23;1.65;;;1.50;;
9370;SDS011;4725;48.384;8.984;2024-03-25T14:37:50;2.17;;;1.42;;
9370;SDS011;4725;48.384;8.984;2024-03-25T14:40:16;2.42;;;1.27;;
9370;SDS011;4725;48.384;8.984;2024-03-25T14:42:42;2.20;;;1.20;;
9370;SDS011;4725;48.384;8.984;2024-03-25T14:45:08;1.45;;;1.30;;
9370;SDS011;4725;48.384;8.984;2024-03-25T14:47:34;1.83;;;1.20;;
9370;SDS011;4725;48.384;8.984;2024-03-25T14:50:00;1.88;;;1.50;;
9370;SDS011;4725;48.384;8.984;2024-03-25T14:52:26;3.05;;;1.48;;
9370;SDS011;4725;48.384;8.984;2024-03-25T14:54:53;3.70;;;1.50;;
9370;SDS011;4725;48.384;8.984;2024-03-25T14:57:19;1.88;;;1.35;;
9370;SDS011;4725;48.384;8.984;2024-03-25T14:59:45;1.88;;;1.50;;
9370;SDS011;4725;48.384;8.984;2024-03-25T15:02:11;2.03;;;1.60;;
9370;SDS011;4725;48.384;8.984;2024-03-25T15:04:37;2.55;;;1.40;;
9370;SDS011;4725;48.384;8.984;2024-03-25T15:07:03;1.17;;;1.10;;